sensor_id;sensor_type;location;lat;lon;timestamp;pressure;altitude;pressure_sealevel;temperature;humidity
59588;BME280;45412;54.472;18.464;2024-03-07T00:01:09;101186.27;;;-0.10;100.00
59588;BME280;45412;54.472;18.464;2024-03-07T00:03:55;101186.52;;;-0.13;100.00
59588;BME280;45412;54.472;18.464;2024-03-07T00:06:41;101182.20;;;-0.16;100.00
59588;BME280;45412;54.472;18.464;2024-03-07T00:09:27;101183.64;;;-0.20;100.00
59588;BME280;45412;54.472;18.464;2024-03-07T00:12:13;101185.39;;;-0.20;100.00
59588;BME280;45412;54.472;18.464;2024-03-07T00:15:00;101181.90;;;-0.20;100.00
59588;BME280;45412;54.472;18.464;2024-03-07T00:17:46;101182.26;;;-0.21;100.00
59588;BME280;45412;54.472;18.464;2024-03-07T00:20:33;101181.94;;;-0.23;100.00
59588;BME280;45412;54.472;18.464;2024-03-07T00:23:19;101184.59;;;-0.25;100.00
59588;BME280;45412;54.472;18.464;2024-03-07T00:26:05;101184.65;;;-0.29;100.00
59588;BME280;45412;54.472;18.464;2024-03-07T00:28:51;101186.98;;;-0.32;100.00
59588;BME280;45412;54.472;18.464;2024-03-07T00:31:37;101186.67;;;-0.36;100.00
59588;BME280;45412;54.472;18.464;2024-03-07T00:34:23;101183.93;;;-0.39;100.00
59588;BME280;45412;54.472;18.464;2024-03-07T00:37:12;101182.94;;;-0.42;100.00
59588;BME280;45412;54.472;18.464;2024-03-07T00:39:59;101181.77;;;-0.47;100.00
59588;BME280;45412;54.472;18.464;2024-03-07T00:42:44;101185.66;;;-0.50;100.00
59588;BME280;45412;54.472;18.464;2024-03-07T00:45:31;101182.55;;;-0.53;100.00
59588;BME280;45412;54.472;18.464;2024-03-07T00:48:18;101182.27;;;-0.57;100.00
59588;BME280;45412;54.472;18.464;2024-03-07T00:51:05;101180.24;;;-0.63;100.00
59588;BME280;45412;54.472;18.464;2024-03-07T00:53:51;101179.26;;;-0.67;100.00
59588;BME280;45412;54.472;18.464;2024-03-07T00:56:37;101179.48;;;-0.71;100.00
59588;BME280;45412;54.472;18.464;2024-03-07T00:59:24;101180.73;;;-0.73;100.00
59588;BME280;45412;54.472;18.464;2024-03-07T01:02:10;101182.88;;;-0.77;100.00
59588;BME280;45412;54.472;18.464;2024-03-07T01:04:56;101179.41;;;-0.79;100.00
59588;BME280;45412;54.472;18.464;2024-03-07T01:07:42;101182.21;;;-0.79;100.00
59588;BME280;45412;54.472;18.464;2024-03-07T01:10:30;101181.00;;;-0.80;100.00
59588;BME280;45412;54.472;18.464;2024-03-07T01:13:16;101180.70;;;-0.83;100.00
59588;BME280;45412;54.472;18.464;2024-03-07T01:16:08;101181.24;;;-0.86;100.00
59588;BME280;45412;54.472;18.464;2024-03-07T01:18:54;101182.16;;;-0.90;100.00
59588;BME280;45412;54.472;18.464;2024-03-07T01:21:40;101181.18;;;-0.95;100.00
59588;BME280;45412;54.472;18.464;2024-03-07T01:24:26;101181.94;;;-1.00;100.00
59588;BME280;45412;54.472;18.464;2024-03-07T01:27:13;101182.67;;;-1.04;100.00
59588;BME280;45412;54.472;18.464;2024-03-07T01:29:59;101179.92;;;-1.06;100.00
59588;BME280;45412;54.472;18.464;2024-03-07T01:32:45;101181.86;;;-1.08;100.00
59588;BME280;45412;54.472;18.464;2024-03-07T01:35:31;101185.90;;;-1.10;100.00
59588;BME280;45412;54.472;18.464;2024-03-07T01:38:18;101184.04;;;-1.15;100.00
59588;BME280;45412;54.472;18.464;2024-03-07T01:41:05;101181.46;;;-1.19;100.00
59588;BME280;45412;54.472;18.464;2024-03-07T01:43:51;101181.33;;;-1.24;100.00
59588;BME280;45412;54.472;18.464;2024-03-07T01:46:37;101180.88;;;-1.29;100.00
59588;BME280;45412;54.472;18.464;2024-03-07T01:49:23;101184.41;;;-1.34;100.00
59588;BME280;45412;54.472;18.464;2024-03-07T01:52:10;101184.48;;;-1.41;100.00
59588;BME280;45412;54.472;18.464;2024-03-07T01:54:57;101184.71;;;-1.47;100.00
59588;BME280;45412;54.472;18.464;2024-03-07T01:57:44;101185.45;;;-1.51;100.00
59588;BME280;45412;54.472;18.464;2024-03-07T02:00:31;101182.88;;;-1.54;100.00
59588;BME280;45412;54.472;18.464;2024-03-07T02:03:18;101184.27;;;-1.55;100.00
59588;BME280;45412;54.472;18.464;2024-03-07T02:06:04;101180.47;;;-1.58;100.00
59588;BME280;45412;54.472;18.464;2024-03-07T02:08:50;101181.90;;;-1.61;100.00
59588;BME280;45412;54.472;18.464;2024-03-07T02:11:36;101181.61;;;-1.68;100.00
59588;BME280;45412;54.472;18.464;2024-03-07T02:14:23;101185.64;;;-1.72;100.00
59588;BME280;45412;54.472;18.464;2024-03-07T02:17:09;101184.27;;;-1.75;100.00
59588;BME280;45412;54.472;18.464;2024-03-07T02:19:55;101189.70;;;-1.77;100.00
59588;BME280;45412;54.472;18.464;2024-03-07T02:22:42;101185.53;;;-1.79;100.00
59588;BME280;45412;54.472;18.464;2024-03-07T02:25:28;101182.77;;;-1.82;100.00
59588;BME280;45412;54.472;18.464;2024-03-07T02:28:13;101178.63;;;-1.85;100.00
59588;BME280;45412;54.472;18.464;2024-03-07T02:31:01;101174.11;;;-1.86;100.00
59588;BME280;45412;54.472;18.464;2024-03-07T02:33:47;101177.42;;;-1.87;100.00
59588;BME280;45412;54.472;18.464;2024-03-07T02:36:33;101177.63;;;-1.90;100.00
59588;BME280;45412;54.472;18.464;2024-03-07T02:39:20;101175.39;;;-1.93;100.00
59588;BME280;45412;54.472;18.464;2024-03-07T02:42:06;101174.52;;;-1.93;100.00
59588;BME280;45412;54.472;18.464;2024-03-07T02:44:52;101168.77;;;-1.92;100.00
59588;BME280;45412;54.472;18.464;2024-03-07T02:47:38;101169.45;;;-1.90;100.00
59588;BME280;45412;54.472;18.464;2024-03-07T02:50:25;101168.06;;;-1.90;100.00
59588;BME280;45412;54.472;18.464;2024-03-07T02:53:11;101171.72;;;-1.91;100.00
59588;BME280;45412;54.472;18.464;2024-03-07T02:55:58;101166.85;;;-1.92;100.00
59588;BME280;45412;54.472;18.464;2024-03-07T02:58:44;101169.14;;;-1.94;100.00
59588;BME280;45412;54.472;18.464;2024-03-07T03:01:30;101170.71;;;-1.96;100.00
59588;BME280;45412;54.472;18.464;2024-03-07T03:04:16;101169.35;;;-1.98;100.00
59588;BME280;45412;54.472;18.464;2024-03-07T03:07:04;101172.66;;;-1.99;100.00
59588;BME280;45412;54.472;18.464;2024-03-07T03:09:50;101169.02;;;-2.01;100.00
59588;BME280;45412;54.472;18.464;2024-03-07T03:12:37;101167.98;;;-2.01;100.00
59588;BME280;45412;54.472;18.464;2024-03-07T03:15:24;101168.67;;;-2.01;100.00
59588;BME280;45412;54.472;18.464;2024-03-07T03:18:11;101168.00;;;-2.03;100.00
59588;BME280;45412;54.472;18.464;2024-03-07T03:20:58;101167.31;;;-2.04;100.00
59588;BME280;45412;54.472;18.464;2024-03-07T03:23:44;101166.79;;;-2.05;100.00
59588;BME280;45412;54.472;18.464;2024-03-07T03:26:30;101167.66;;;-2.06;100.00
59588;BME280;45412;54.472;18.464;2024-03-07T03:29:17;101168.01;;;-2.06;100.00
59588;BME280;45412;54.472;18.464;2024-03-07T03:32:04;101170.45;;;-2.06;100.00
59588;BME280;45412;54.472;18.464;2024-03-07T03:34:50;101172.70;;;-2.04;100.00
59588;BME280;45412;54.472;18.464;2024-03-07T03:37:38;101166.44;;;-2.03;100.00
59588;BME280;45412;54.472;18.464;2024-03-07T03:40:24;101167.30;;;-2.04;100.00
59588;BME280;45412;54.472;18.464;2024-03-07T03:43:09;101167.52;;;-2.07;100.00
59588;BME280;45412;54.472;18.464;2024-03-07T03:45:56;101171.88;;;-2.10;100.00
59588;BME280;45412;54.472;18.464;2024-03-07T03:48:42;101167.53;;;-2.12;100.00
59588;BME280;45412;54.472;18.464;2024-03-07T03:51:28;101173.28;;;-2.12;100.00
59588;BME280;45412;54.472;18.464;2024-03-07T03:54:14;101171.01;;;-2.10;100.00
59588;BME280;45412;54.472;18.464;2024-03-07T03:57:01;101174.45;;;-2.06;100.00
59588;BME280;45412;54.472;18.464;2024-03-07T03:59:47;101172.88;;;-2.03;100.00
59588;BME280;45412;54.472;18.464;2024-03-07T04:02:33;101174.79;;;-2.05;100.00
59588;BME280;45412;54.472;18.464;2024-03-07T04:05:20;101173.59;;;-2.08;100.00
59588;BME280;45412;54.472;18.464;2024-03-07T04:08:07;101171.70;;;-2.10;100.00
59588;BME280;45412;54.472;18.464;2024-03-07T04:10:55;101174.66;;;-2.11;100.00
59588;BME280;45412;54.472;18.464;2024-03-07T04:13:41;101175.20;;;-2.13;100.00
59588;BME280;45412;54.472;18.464;2024-03-07T04:16:27;101171.90;;;-2.14;100.00
59588;BME280;45412;54.472;18.464;2024-03-07T04:19:13;101172.23;;;-2.12;100.00
59588;BME280;45412;54.472;18.464;2024-03-07T04:22:00;101171.02;;;-2.13;100.00
59588;BME280;45412;54.472;18.464;2024-03-07T04:24:47;101172.77;;;-2.15;100.00
59588;BME280;45412;54.472;18.464;2024-03-07T04:27:39;101172.23;;;-2.13;100.00
59588;BME280;45412;54.472;18.464;2024-03-07T04:30:26;101172.41;;;-2.11;100.00
59588;BME280;45412;54.472;18.464;2024-03-07T04:33:11;101170.50;;;-2.11;100.00
59588;BME280;45412;54.472;18.464;2024-03-07T04:35:58;101168.59;;;-2.12;100.00
59588;BME280;45412;54.472;18.464;2024-03-07T04:38:47;101170.86;;;-2.14;100.00
59588;BME280;45412;54.472;18.464;2024-03-07T04:41:33;101170.89;;;-2.17;100.00
59588;BME280;45412;54.472;18.464;2024-03-07T04:44:19;101173.30;;;-2.16;100.00
59588;BME280;45412;54.472;18.464;2024-03-07T04:47:08;101173.49;;;-2.18;100.00
59588;BME280;45412;54.472;18.464;2024-03-07T04:49:54;101174.71;;;-2.18;100.00
59588;BME280;45412;54.472;18.464;2024-03-07T04:52:40;101172.45;;;-2.19;100.00
59588;BME280;45412;54.472;18.464;2024-03-07T04:55:27;101174.53;;;-2.18;100.00
59588;BME280;45412;54.472;18.464;2024-03-07T04:58:13;101175.40;;;-2.17;100.00
59588;BME280;45412;54.472;18.464;2024-03-07T05:00:59;101176.45;;;-2.18;100.00
59588;BME280;45412;54.472;18.464;2024-03-07T05:03:45;101179.25;;;-2.20;100.00
59588;BME280;45412;54.472;18.464;2024-03-07T05:06:31;101184.31;;;-2.20;100.00
59588;BME280;45412;54.472;18.464;2024-03-07T05:09:20;101183.41;;;-2.20;100.00
59588;BME280;45412;54.472;18.464;2024-03-07T05:12:08;101183.09;;;-2.20;100.00
59588;BME280;45412;54.472;18.464;2024-03-07T05:14:54;101180.96;;;-2.18;100.00
59588;BME280;45412;54.472;18.464;2024-03-07T05:17:40;101184.98;;;-2.17;100.00
59588;BME280;45412;54.472;18.464;2024-03-07T05:20:29;101187.58;;;-2.16;100.00
59588;BME280;45412;54.472;18.464;2024-03-07T05:23:15;101187.90;;;-2.14;100.00
59588;BME280;45412;54.472;18.464;2024-03-07T05:26:03;101187.20;;;-2.14;100.00
59588;BME280;45412;54.472;18.464;2024-03-07T05:28:53;101189.98;;;-2.12;100.00
59588;BME280;45412;54.472;18.464;2024-03-07T05:31:42;101188.57;;;-2.10;100.00
59588;BME280;45412;54.472;18.464;2024-03-07T05:34:34;101188.20;;;-2.07;100.00
59588;BME280;45412;54.472;18.464;2024-03-07T05:37:21;101186.45;;;-2.05;100.00
59588;BME280;45412;54.472;18.464;2024-03-07T05:40:08;101190.08;;;-2.01;100.00
59588;BME280;45412;54.472;18.464;2024-03-07T05:42:55;101187.60;;;-1.98;100.00
59588;BME280;45412;54.472;18.464;2024-03-07T05:45:41;101187.21;;;-1.92;100.00
59588;BME280;45412;54.472;18.464;2024-03-07T05:48:28;101184.56;;;-1.87;100.00
59588;BME280;45412;54.472;18.464;2024-03-07T05:51:14;101190.42;;;-1.81;100.00
59588;BME280;45412;54.472;18.464;2024-03-07T05:54:00;101191.59;;;-1.74;100.00
59588;BME280;45412;54.472;18.464;2024-03-07T05:56:47;101189.45;;;-1.70;100.00
59588;BME280;45412;54.472;18.464;2024-03-07T05:59:34;101189.23;;;-1.65;100.00
59588;BME280;45412;54.472;18.464;2024-03-07T06:02:20;101190.95;;;-1.61;100.00
59588;BME280;45412;54.472;18.464;2024-03-07T06:05:07;101189.31;;;-1.54;100.00
59588;BME280;45412;54.472;18.464;2024-03-07T06:08:01;101195.67;;;-1.46;100.00
59588;BME280;45412;54.472;18.464;2024-03-07T06:10:47;101195.27;;;-1.40;100.00
59588;BME280;45412;54.472;18.464;2024-03-07T06:13:33;101193.61;;;-1.31;100.00
59588;BME280;45412;54.472;18.464;2024-03-07T06:16:20;101193.52;;;-1.22;100.00
59588;BME280;45412;54.472;18.464;2024-03-07T06:19:08;101193.44;;;-1.15;100.00
59588;BME280;45412;54.472;18.464;2024-03-07T06:21:57;101193.89;;;-1.09;100.00
59588;BME280;45412;54.472;18.464;2024-03-07T06:24:43;101194.48;;;-1.00;100.00
59588;BME280;45412;54.472;18.464;2024-03-07T06:27:28;101190.96;;;-0.97;100.00
59588;BME280;45412;54.472;18.464;2024-03-07T06:30:23;101192.30;;;-0.92;100.00
59588;BME280;45412;54.472;18.464;2024-03-07T06:33:09;101190.30;;;-0.85;100.00
59588;BME280;45412;54.472;18.464;2024-03-07T06:35:56;101190.02;;;-0.76;100.00
59588;BME280;45412;54.472;18.464;2024-03-07T06:38:43;101190.24;;;-0.68;100.00
59588;BME280;45412;54.472;18.464;2024-03-07T06:41:29;101191.32;;;-0.57;100.00
59588;BME280;45412;54.472;18.464;2024-03-07T06:44:15;101192.73;;;-0.44;100.00
59588;BME280;45412;54.472;18.464;2024-03-07T06:47:03;101192.58;;;-0.34;100.00
59588;BME280;45412;54.472;18.464;2024-03-07T06:49:51;101190.49;;;-0.22;100.00
59588;BME280;45412;54.472;18.464;2024-03-07T06:52:38;101191.34;;;-0.10;100.00
59588;BME280;45412;54.472;18.464;2024-03-07T06:55:25;101190.44;;;0.03;100.00
59588;BME280;45412;54.472;18.464;2024-03-07T06:58:11;101188.63;;;0.18;100.00
59588;BME280;45412;54.472;18.464;2024-03-07T07:00:58;101191.30;;;0.35;100.00
59588;BME280;45412;54.472;18.464;2024-03-07T07:03:46;101189.14;;;0.59;100.00
59588;BME280;45412;54.472;18.464;2024-03-07T07:06:33;101188.96;;;0.87;100.00
59588;BME280;45412;54.472;18.464;2024-03-07T07:09:19;101182.56;;;1.27;100.00
59588;BME280;45412;54.472;18.464;2024-03-07T07:12:06;101183.31;;;2.29;100.00
59588;BME280;45412;54.472;18.464;2024-03-07T07:14:52;101181.70;;;4.16;100.00
59588;BME280;45412;54.472;18.464;2024-03-07T07:17:39;101173.27;;;5.99;98.46
59588;BME280;45412;54.472;18.464;2024-03-07T07:20:25;101165.40;;;7.65;90.41
59588;BME280;45412;54.472;18.464;2024-03-07T07:23:11;101160.90;;;9.11;83.66
59588;BME280;45412;54.472;18.464;2024-03-07T07:25:59;101164.95;;;10.62;75.82
59588;BME280;45412;54.472;18.464;2024-03-07T07:28:45;101162.38;;;11.80;69.06
59588;BME280;45412;54.472;18.464;2024-03-07T07:31:33;101159.21;;;12.88;64.56
59588;BME280;45412;54.472;18.464;2024-03-07T07:34:19;101154.61;;;13.68;56.32
59588;BME280;45412;54.472;18.464;2024-03-07T07:37:05;101159.23;;;14.38;52.76
59588;BME280;45412;54.472;18.464;2024-03-07T07:39:51;101155.58;;;14.74;48.11
59588;BME280;45412;54.472;18.464;2024-03-07T07:42:39;101155.30;;;15.45;49.10
59588;BME280;45412;54.472;18.464;2024-03-07T07:45:25;101150.29;;;16.03;44.51
59588;BME280;45412;54.472;18.464;2024-03-07T07:48:11;101151.33;;;16.50;44.41
59588;BME280;45412;54.472;18.464;2024-03-07T07:50:58;101147.73;;;17.13;42.93
59588;BME280;45412;54.472;18.464;2024-03-07T07:53:44;101144.77;;;17.74;40.01
59588;BME280;45412;54.472;18.464;2024-03-07T07:56:31;101142.38;;;17.93;38.38
59588;BME280;45412;54.472;18.464;2024-03-07T07:59:17;101145.67;;;18.19;37.15
59588;BME280;45412;54.472;18.464;2024-03-07T08:02:04;101145.52;;;18.52;36.42
59588;BME280;45412;54.472;18.464;2024-03-07T08:04:52;101144.39;;;18.85;35.49
59588;BME280;45412;54.472;18.464;2024-03-07T08:07:38;101143.14;;;19.10;34.03
59588;BME280;45412;54.472;18.464;2024-03-07T08:10:27;101142.27;;;18.92;32.80
59588;BME280;45412;54.472;18.464;2024-03-07T08:13:16;101140.71;;;19.14;33.33
59588;BME280;45412;54.472;18.464;2024-03-07T08:16:02;101138.14;;;19.66;32.52
59588;BME280;45412;54.472;18.464;2024-03-07T08:18:49;101136.49;;;20.03;31.39
59588;BME280;45412;54.472;18.464;2024-03-07T08:21:35;101134.60;;;20.36;31.67
59588;BME280;45412;54.472;18.464;2024-03-07T08:24:23;101134.33;;;20.81;31.22
59588;BME280;45412;54.472;18.464;2024-03-07T08:27:09;101137.42;;;21.27;30.05
59588;BME280;45412;54.472;18.464;2024-03-07T08:29:57;101138.05;;;21.31;28.85
59588;BME280;45412;54.472;18.464;2024-03-07T08:32:49;101142.52;;;20.75;29.23
59588;BME280;45412;54.472;18.464;2024-03-07T08:35:36;101140.06;;;20.81;28.72
59588;BME280;45412;54.472;18.464;2024-03-07T08:38:22;101140.83;;;20.93;27.35
59588;BME280;45412;54.472;18.464;2024-03-07T08:41:09;101145.09;;;21.06;27.36
59588;BME280;45412;54.472;18.464;2024-03-07T08:43:57;101145.57;;;21.25;26.82
59588;BME280;45412;54.472;18.464;2024-03-07T08:46:43;101146.44;;;21.42;26.41
59588;BME280;45412;54.472;18.464;2024-03-07T08:49:29;101142.35;;;21.47;26.01
59588;BME280;45412;54.472;18.464;2024-03-07T08:52:15;101141.04;;;21.44;25.98
59588;BME280;45412;54.472;18.464;2024-03-07T08:55:01;101141.27;;;21.49;25.84
59588;BME280;45412;54.472;18.464;2024-03-07T08:57:48;101140.70;;;21.78;25.44
59588;BME280;45412;54.472;18.464;2024-03-07T09:00:35;101143.27;;;22.19;25.31
59588;BME280;45412;54.472;18.464;2024-03-07T09:03:25;101139.90;;;22.28;24.85
59588;BME280;45412;54.472;18.464;2024-03-07T09:06:11;101140.18;;;22.43;24.81
59588;BME280;45412;54.472;18.464;2024-03-07T09:08:59;101139.21;;;22.55;24.33
59588;BME280;45412;54.472;18.464;2024-03-07T09:11:46;101139.12;;;22.66;23.96
59588;BME280;45412;54.472;18.464;2024-03-07T09:14:33;101135.02;;;22.79;23.61
59588;BME280;45412;54.472;18.464;2024-03-07T09:17:20;101134.90;;;22.94;23.51
59588;BME280;45412;54.472;18.464;2024-03-07T09:20:07;101133.07;;;23.12;23.51
59588;BME280;45412;54.472;18.464;2024-03-07T09:23:00;101135.55;;;23.19;23.03
59588;BME280;45412;54.472;18.464;2024-03-07T09:25:47;101139.89;;;23.29;22.79
59588;BME280;45412;54.472;18.464;2024-03-07T09:28:33;101136.77;;;23.54;22.45
59588;BME280;45412;54.472;18.464;2024-03-07T09:31:19;101142.59;;;23.40;21.71
59588;BME280;45412;54.472;18.464;2024-03-07T09:34:05;101141.27;;;23.25;21.74
59588;BME280;45412;54.472;18.464;2024-03-07T09:36:52;101139.80;;;23.23;21.90
59588;BME280;45412;54.472;18.464;2024-03-07T09:39:38;101138.30;;;23.19;21.87
59588;BME280;45412;54.472;18.464;2024-03-07T09:42:26;101141.15;;;23.06;21.91
59588;BME280;45412;54.472;18.464;2024-03-07T09:45:16;101141.98;;;22.99;21.91
59588;BME280;45412;54.472;18.464;2024-03-07T09:48:03;101138.54;;;23.04;21.89
59588;BME280;45412;54.472;18.464;2024-03-07T09:50:52;101139.93;;;23.16;21.71
59588;BME280;45412;54.472;18.464;2024-03-07T09:53:42;101145.34;;;23.35;21.70
59588;BME280;45412;54.472;18.464;2024-03-07T09:56:30;101144.07;;;23.43;21.48
59588;BME280;45412;54.472;18.464;2024-03-07T09:59:19;101146.08;;;23.55;21.32
59588;BME280;45412;54.472;18.464;2024-03-07T10:02:06;101141.15;;;23.71;20.81
59588;BME280;45412;54.472;18.464;2024-03-07T10:04:54;101139.47;;;24.01;21.16
59588;BME280;45412;54.472;18.464;2024-03-07T10:07:41;101138.32;;;24.43;21.17
59588;BME280;45412;54.472;18.464;2024-03-07T10:10:28;101140.89;;;24.57;20.83
59588;BME280;45412;54.472;18.464;2024-03-07T10:13:15;101136.79;;;24.45;20.78
59588;BME280;45412;54.472;18.464;2024-03-07T10:16:04;101137.42;;;24.55;20.81
59588;BME280;45412;54.472;18.464;2024-03-07T10:18:51;101140.37;;;24.73;20.62
59588;BME280;45412;54.472;18.464;2024-03-07T10:21:37;101134.70;;;24.90;20.54
59588;BME280;45412;54.472;18.464;2024-03-07T10:24:24;101139.86;;;24.91;20.13
59588;BME280;45412;54.472;18.464;2024-03-07T10:27:11;101134.84;;;24.88;20.11
59588;BME280;45412;54.472;18.464;2024-03-07T10:29:58;101136.90;;;24.88;20.47
59588;BME280;45412;54.472;18.464;2024-03-07T10:32:45;101136.04;;;24.87;20.35
59588;BME280;45412;54.472;18.464;2024-03-07T10:35:32;101131.83;;;24.73;20.04
59588;BME280;45412;54.472;18.464;2024-03-07T10:38:18;101129.98;;;24.63;20.21
59588;BME280;45412;54.472;18.464;2024-03-07T10:41:06;101127.34;;;24.29;20.81
59588;BME280;45412;54.472;18.464;2024-03-07T10:43:57;101127.00;;;24.10;20.77
59588;BME280;45412;54.472;18.464;2024-03-07T10:46:46;101122.77;;;23.98;20.63
59588;BME280;45412;54.472;18.464;2024-03-07T10:49:36;101122.78;;;23.88;21.13
59588;BME280;45412;54.472;18.464;2024-03-07T10:52:35;101125.54;;;23.90;21.17
59588;BME280;45412;54.472;18.464;2024-03-07T10:59:18;101118.46;;;23.89;21.09
59588;BME280;45412;54.472;18.464;2024-03-07T11:05:14;101119.58;;;23.51;21.29
59588;BME280;45412;54.472;18.464;2024-03-07T11:08:03;101116.30;;;23.73;21.23
59588;BME280;45412;54.472;18.464;2024-03-07T11:10:59;101116.35;;;23.82;21.19
59588;BME280;45412;54.472;18.464;2024-03-07T11:13:46;101108.97;;;23.58;20.69
59588;BME280;45412;54.472;18.464;2024-03-07T11:16:33;101115.15;;;23.41;20.98
59588;BME280;45412;54.472;18.464;2024-03-07T11:19:28;101108.22;;;23.37;21.44
59588;BME280;45412;54.472;18.464;2024-03-07T11:22:31;101109.42;;;23.12;21.46
59588;BME280;45412;54.472;18.464;2024-03-07T11:25:22;101105.54;;;22.94;21.58
59588;BME280;45412;54.472;18.464;2024-03-07T11:28:09;101106.57;;;22.76;21.63
59588;BME280;45412;54.472;18.464;2024-03-07T11:34:15;101097.27;;;22.17;21.90
59588;BME280;45412;54.472;18.464;2024-03-07T11:37:05;101092.89;;;21.79;22.61
59588;BME280;45412;54.472;18.464;2024-03-07T11:39:53;101092.24;;;21.46;22.67
59588;BME280;45412;54.472;18.464;2024-03-07T11:42:44;101095.44;;;21.10;22.71
59588;BME280;45412;54.472;18.464;2024-03-07T11:45:31;101091.30;;;20.59;23.44
59588;BME280;45412;54.472;18.464;2024-03-07T11:48:32;101086.91;;;19.95;24.29
59588;BME280;45412;54.472;18.464;2024-03-07T11:51:19;101087.71;;;19.54;24.72
59588;BME280;45412;54.472;18.464;2024-03-07T11:54:11;101084.86;;;19.15;25.06
59588;BME280;45412;54.472;18.464;2024-03-07T11:57:00;101087.48;;;18.90;25.04
59588;BME280;45412;54.472;18.464;2024-03-07T11:59:47;101080.01;;;18.49;25.44
59588;BME280;45412;54.472;18.464;2024-03-07T12:02:38;101076.94;;;18.21;25.50
59588;BME280;45412;54.472;18.464;2024-03-07T12:05:26;101072.98;;;17.82;25.82
59588;BME280;45412;54.472;18.464;2024-03-07T12:08:13;101070.66;;;17.44;26.83
59588;BME280;45412;54.472;18.464;2024-03-07T12:10:59;101069.73;;;17.00;27.45
59588;BME280;45412;54.472;18.464;2024-03-07T12:13:46;101072.92;;;16.62;27.95
59588;BME280;45412;54.472;18.464;2024-03-07T12:16:33;101068.40;;;16.25;28.96
59588;BME280;45412;54.472;18.464;2024-03-07T12:19:19;101066.95;;;15.96;29.64
59588;BME280;45412;54.472;18.464;2024-03-07T12:22:11;101064.73;;;15.68;30.33
59588;BME280;45412;54.472;18.464;2024-03-07T12:25:08;101065.26;;;15.42;30.85
59588;BME280;45412;54.472;18.464;2024-03-07T12:28:05;101067.17;;;15.14;31.48
59588;BME280;45412;54.472;18.464;2024-03-07T12:30:55;101066.44;;;14.81;31.95
59588;BME280;45412;54.472;18.464;2024-03-07T12:33:44;101067.86;;;14.65;32.55
59588;BME280;45412;54.472;18.464;2024-03-07T12:36:40;101068.40;;;14.28;33.34
59588;BME280;45412;54.472;18.464;2024-03-07T12:39:35;101067.86;;;13.86;34.26
59588;BME280;45412;54.472;18.464;2024-03-07T12:42:27;101066.17;;;13.31;35.27
59588;BME280;45412;54.472;18.464;2024-03-07T12:45:19;101065.61;;;12.77;36.01
59588;BME280;45412;54.472;18.464;2024-03-07T12:48:07;101067.59;;;12.18;36.89
59588;BME280;45412;54.472;18.464;2024-03-07T12:50:55;101064.91;;;11.62;38.02
59588;BME280;45412;54.472;18.464;2024-03-07T12:53:44;101064.19;;;11.09;38.62
59588;BME280;45412;54.472;18.464;2024-03-07T12:56:36;101067.37;;;10.44;40.43
59588;BME280;45412;54.472;18.464;2024-03-07T12:59:25;101073.29;;;9.86;41.39
59588;BME280;45412;54.472;18.464;2024-03-07T13:02:14;101069.85;;;9.47;43.17
59588;BME280;45412;54.472;18.464;2024-03-07T13:05:02;101068.40;;;9.16;43.93
59588;BME280;45412;54.472;18.464;2024-03-07T13:07:50;101064.91;;;8.92;44.46
59588;BME280;45412;54.472;18.464;2024-03-07T13:10:41;101065.88;;;8.75;45.27
59588;BME280;45412;54.472;18.464;2024-03-07T13:13:30;101064.35;;;8.57;45.76
59588;BME280;45412;54.472;18.464;2024-03-07T13:16:19;101066.71;;;8.35;46.81
59588;BME280;45412;54.472;18.464;2024-03-07T13:19:07;101068.92;;;8.23;46.54
59588;BME280;45412;54.472;18.464;2024-03-07T13:21:56;101068.17;;;8.03;46.08
59588;BME280;45412;54.472;18.464;2024-03-07T13:24:44;101068.30;;;7.90;47.41
59588;BME280;45412;54.472;18.464;2024-03-07T13:27:33;101065.91;;;7.60;48.75
59588;BME280;45412;54.472;18.464;2024-03-07T13:30:26;101065.17;;;7.35;49.26
59588;BME280;45412;54.472;18.464;2024-03-07T13:33:17;101059.59;;;7.23;49.98
59588;BME280;45412;54.472;18.464;2024-03-07T13:36:06;101057.15;;;7.14;49.69
59588;BME280;45412;54.472;18.464;2024-03-07T13:38:55;101057.90;;;6.98;50.08
59588;BME280;45412;54.472;18.464;2024-03-07T13:41:45;101057.84;;;6.88;50.86
59588;BME280;45412;54.472;18.464;2024-03-07T13:44:36;101057.06;;;6.74;50.67
59588;BME280;45412;54.472;18.464;2024-03-07T13:47:26;101056.00;;;6.63;51.07
59588;BME280;45412;54.472;18.464;2024-03-07T13:50:17;101057.80;;;6.50;51.97
59588;BME280;45412;54.472;18.464;2024-03-07T13:53:30;101056.55;;;6.30;52.74
59588;BME280;45412;54.472;18.464;2024-03-07T13:56:44;101056.35;;;6.23;53.00
59588;BME280;45412;54.472;18.464;2024-03-07T14:10:04;101049.71;;;6.09;53.20
59588;BME280;45412;54.472;18.464;2024-03-07T14:13:52;101046.16;;;5.97;52.33
59588;BME280;45412;54.472;18.464;2024-03-07T14:26:52;101036.80;;;5.51;53.66
59588;BME280;45412;54.472;18.464;2024-03-07T14:33:18;101025.52;;;5.17;54.15
59588;BME280;45412;54.472;18.464;2024-03-07T14:36:14;101030.27;;;5.12;53.64
59588;BME280;45412;54.472;18.464;2024-03-07T14:39:03;101024.06;;;5.09;53.44
59588;BME280;45412;54.472;18.464;2024-03-07T14:41:58;101022.52;;;5.03;53.87
59588;BME280;45412;54.472;18.464;2024-03-07T14:44:46;101020.94;;;4.99;53.98
59588;BME280;45412;54.472;18.464;2024-03-07T14:47:36;101018.11;;;4.94;54.47
59588;BME280;45412;54.472;18.464;2024-03-07T14:50:27;101014.29;;;4.89;54.99
59588;BME280;45412;54.472;18.464;2024-03-07T14:53:17;101014.24;;;4.81;55.91
59588;BME280;45412;54.472;18.464;2024-03-07T14:56:05;101012.34;;;4.75;56.38